createdAt,value
2022-11-25T00:01:07.777Z,100273.94
2022-11-25T00:03:36.404Z,100268.72
2022-11-25T00:06:13.058Z,100274.06
2022-11-25T00:08:41.783Z,100282.72
2022-11-25T00:11:11.255Z,100284.16
2022-11-25T00:13:41.432Z,100283.22
2022-11-25T00:16:11.435Z,100283.25
2022-11-25T00:18:40.074Z,100279.94
2022-11-25T00:21:09.524Z,100276.56
2022-11-25T00:23:38.213Z,100281.94
2022-11-25T00:26:10.406Z,100278.56
2022-11-25T00:28:40.408Z,100269.91
2022-11-25T00:31:12.235Z,100272.63
2022-11-25T00:33:40.494Z,100265.63
2022-11-25T00:36:15.024Z,100268.94
2022-11-25T00:38:43.112Z,100268.78
2022-11-25T00:41:28.953Z,100270.50
2022-11-25T00:44:15.642Z,100268.59
2022-11-25T00:46:44.119Z,100268.59
2022-11-25T00:49:11.862Z,100268.66
2022-11-25T00:51:39.643Z,100273.78
2022-11-25T00:54:07.773Z,100270.50
2022-11-25T00:56:35.546Z,100273.16
2022-11-25T00:59:04.917Z,100271.28
2022-11-25T01:01:33.038Z,100269.63
2022-11-25T01:04:03.134Z,100268.78
2022-11-25T01:06:31.024Z,100272.31
2022-11-25T01:08:58.732Z,100269.69
2022-11-25T01:11:26.666Z,100272.19
2022-11-25T01:14:00.951Z,100276.50
2022-11-25T01:16:31.523Z,100280.06
2022-11-25T01:19:00.551Z,100282.78
2022-11-25T01:21:31.229Z,100288.94
2022-11-25T01:24:01.097Z,100288.97
2022-11-25T01:26:30.005Z,100285.50
2022-11-25T01:29:00.339Z,100290.66
2022-11-25T01:31:31.758Z,100294.94
2022-11-25T01:34:00.986Z,100295.81
2022-11-25T01:36:29.468Z,100294.00
2022-11-25T01:38:58.687Z,100279.34
2022-11-25T01:41:28.713Z,100293.88
2022-11-25T01:44:08.761Z,100293.09
2022-11-25T01:46:49.778Z,100292.31
2022-11-25T01:49:20.808Z,100291.44
2022-11-25T01:51:54.462Z,100294.88
2022-11-25T01:54:27.169Z,100295.66
2022-11-25T01:57:00.151Z,100295.66
2022-11-25T01:59:30.510Z,100299.94
2022-11-25T02:02:00.294Z,100295.56
2022-11-25T02:04:33.703Z,100285.09
2022-11-25T02:07:10.680Z,100286.78
2022-11-25T02:09:42.182Z,100285.09
2022-11-25T02:12:10.940Z,100281.78
2022-11-25T02:14:39.020Z,100289.59
2022-11-25T02:17:08.169Z,100283.59
2022-11-25T02:19:50.834Z,100293.81
2022-11-25T02:22:24.973Z,100286.81
2022-11-25T02:24:57.609Z,100279.81
2022-11-25T02:27:26.710Z,100275.28
2022-11-25T02:29:55.302Z,100279.50
2022-11-25T02:32:23.903Z,100269.28
2022-11-25T02:34:51.925Z,100276.13
2022-11-25T02:37:23.590Z,100279.56
2022-11-25T02:39:53.498Z,100277.84
2022-11-25T02:42:23.877Z,100275.16
2022-11-25T02:44:53.253Z,100276.78
2022-11-25T02:47:21.504Z,100276.91
2022-11-25T02:49:49.177Z,100278.66
2022-11-25T02:52:16.829Z,100274.41
2022-11-25T02:54:44.584Z,100276.06
2022-11-25T02:57:12.393Z,100277.84
2022-11-25T02:59:40.081Z,100270.97
2022-11-25T03:02:10.307Z,100273.69
2022-11-25T03:04:38.813Z,100273.78
2022-11-25T03:07:06.735Z,100272.94
2022-11-25T03:09:34.420Z,100263.41
2022-11-25T03:12:21.155Z,100266.06
2022-11-25T03:14:53.821Z,100274.72
2022-11-25T03:17:23.163Z,100269.72
2022-11-25T03:19:50.877Z,100265.50
2022-11-25T03:22:18.470Z,100265.63
2022-11-25T03:24:46.179Z,100263.13
2022-11-25T03:27:13.906Z,100266.56
2022-11-25T03:29:42.485Z,100268.34
2022-11-25T03:32:10.425Z,100280.38
2022-11-25T03:34:40.568Z,100265.50
2022-11-25T03:37:09.294Z,100251.81
2022-11-25T03:39:38.185Z,100251.63
2022-11-25T03:42:07.825Z,100255.72
2022-11-25T03:44:35.735Z,100250.44
2022-11-25T03:47:03.818Z,100253.03
2022-11-25T03:49:31.812Z,100256.34
2022-11-25T03:52:01.758Z,100252.03
2022-11-25T03:54:29.764Z,100251.84
2022-11-25T03:57:18.389Z,100258.56
2022-11-25T03:59:46.140Z,100262.81
2022-11-25T04:02:15.373Z,100264.59
2022-11-25T04:04:43.442Z,100272.31
2022-11-25T04:07:12.628Z,100274.84
2022-11-25T04:09:41.534Z,100276.53
2022-11-25T04:12:28.171Z,100271.38
2022-11-25T04:15:06.037Z,100259.31
2022-11-25T04:17:34.038Z,100259.19
2022-11-25T04:20:02.150Z,100261.59
2022-11-25T04:22:32.242Z,100261.56
2022-11-25T04:25:01.764Z,100262.31
2022-11-25T04:27:30.367Z,100259.66
2022-11-25T04:29:58.565Z,100257.94
2022-11-25T04:32:27.449Z,100262.16
2022-11-25T04:34:55.337Z,100247.31
2022-11-25T04:37:23.772Z,100245.72
2022-11-25T04:39:53.292Z,100245.91
2022-11-25T04:42:34.511Z,100240.75
2022-11-25T04:45:22.404Z,100233.97
2022-11-25T04:47:51.222Z,100238.38
2022-11-25T04:50:22.357Z,100244.59
2022-11-25T04:53:00.296Z,100245.69
2022-11-25T04:55:30.017Z,100258.88
2022-11-25T04:57:59.413Z,100248.59
2022-11-25T05:00:26.612Z,100244.22
2022-11-25T05:02:54.756Z,100239.94
2022-11-25T05:05:24.486Z,100239.91
2022-11-25T05:07:52.359Z,100234.78
2022-11-25T05:10:22.066Z,100239.72
2022-11-25T05:12:52.771Z,100244.69
2022-11-25T05:15:23.160Z,100240.31
2022-11-25T05:17:50.889Z,100244.69
2022-11-25T05:20:28.951Z,100253.38
2022-11-25T05:22:57.091Z,100258.44
2022-11-25T05:25:26.680Z,100255.72
2022-11-25T05:28:15.946Z,100259.22
2022-11-25T05:30:45.347Z,100272.88
2022-11-25T05:33:13.648Z,100269.34
2022-11-25T05:35:41.681Z,100274.53
2022-11-25T05:38:10.224Z,100275.44
2022-11-25T05:40:38.817Z,100275.22
2022-11-25T05:43:11.648Z,100267.28
2022-11-25T05:45:42.588Z,100270.66
2022-11-25T05:48:12.223Z,100276.56
2022-11-25T05:50:40.168Z,100279.09
2022-11-25T05:53:18.219Z,100277.41
2022-11-25T05:55:56.193Z,100279.00
2022-11-25T05:58:41.815Z,100280.72
2022-11-25T06:01:14.102Z,100287.59
2022-11-25T06:03:42.566Z,100290.19
2022-11-25T06:06:11.896Z,100300.75
2022-11-25T06:08:40.345Z,100295.59
2022-11-25T06:11:11.772Z,100309.41
2022-11-25T06:13:39.684Z,100317.16
2022-11-25T06:16:08.677Z,100312.75
2022-11-25T06:18:38.482Z,100312.84
2022-11-25T06:21:10.210Z,100312.69
2022-11-25T06:23:39.140Z,100315.97
2022-11-25T06:26:08.939Z,100310.75
2022-11-25T06:28:37.524Z,100307.41
2022-11-25T06:31:07.617Z,100332.41
2022-11-25T06:33:42.549Z,100341.03
2022-11-25T06:36:16.978Z,100333.28
2022-11-25T06:38:45.330Z,100326.41
2022-11-25T06:41:13.572Z,100324.53
2022-11-25T06:43:41.525Z,100335.81
2022-11-25T06:46:10.909Z,100323.81
2022-11-25T06:48:39.318Z,100324.53
2022-11-25T06:51:11.031Z,100332.25
2022-11-25T06:53:39.609Z,100333.03
2022-11-25T06:56:10.225Z,100328.75
2022-11-25T06:58:38.946Z,100333.91
2022-11-25T07:01:08.975Z,100330.44
2022-11-25T07:03:36.997Z,100324.34
2022-11-25T07:06:05.122Z,100335.44
2022-11-25T07:08:34.994Z,100331.19
2022-11-25T07:11:07.710Z,100338.03
2022-11-25T07:13:35.601Z,100326.03
2022-11-25T07:16:04.492Z,100331.16
2022-11-25T07:18:33.723Z,100332.03
2022-11-25T07:21:07.022Z,100333.72
2022-11-25T07:23:37.089Z,100332.88
2022-11-25T07:26:06.447Z,100337.16
2022-11-25T07:28:34.827Z,100341.47
2022-11-25T07:31:23.422Z,100353.56
2022-11-25T07:33:57.293Z,100342.28
2022-11-25T07:36:25.310Z,100346.59
2022-11-25T07:38:54.857Z,100355.16
2022-11-25T07:41:24.541Z,100351.56
2022-11-25T07:43:54.085Z,100347.31
2022-11-25T07:46:27.366Z,100355.91
2022-11-25T07:48:57.347Z,100356.69
2022-11-25T07:51:27.455Z,100350.66
2022-11-25T07:53:57.803Z,100349.72
2022-11-25T07:56:25.908Z,100356.53
2022-11-25T07:58:53.795Z,100357.34
2022-11-25T08:01:21.714Z,100357.31
2022-11-25T08:03:51.201Z,100365.91
2022-11-25T08:06:21.233Z,100359.81
2022-11-25T08:08:49.253Z,100368.41
2022-11-25T08:11:20.858Z,100367.50
2022-11-25T08:13:49.258Z,100370.09
2022-11-25T08:16:19.482Z,100370.09
2022-11-25T08:18:47.391Z,100371.66
2022-11-25T08:21:16.684Z,100375.94
2022-11-25T08:23:47.474Z,100376.81
2022-11-25T08:26:20.031Z,100377.66
2022-11-25T08:28:48.342Z,100386.19
2022-11-25T08:31:18.933Z,100390.28
2022-11-25T08:33:47.820Z,100390.22
2022-11-25T08:36:16.471Z,100381.78
2022-11-25T08:38:45.098Z,100383.44
2022-11-25T08:41:14.991Z,100387.66
2022-11-25T08:43:44.511Z,100389.28
2022-11-25T08:46:14.502Z,100396.22
2022-11-25T08:48:43.088Z,100394.41
2022-11-25T08:51:13.262Z,100404.63
2022-11-25T08:53:42.733Z,100401.94
2022-11-25T08:56:11.381Z,100412.22
2022-11-25T08:58:39.803Z,100412.31
2022-11-25T09:01:09.049Z,100404.34
2022-11-25T09:03:39.662Z,100403.88
2022-11-25T09:06:09.577Z,100408.72
2022-11-25T09:08:38.664Z,100409.28
2022-11-25T09:11:07.430Z,100409.19
2022-11-25T09:13:35.404Z,100412.56
2022-11-25T09:16:03.503Z,100419.53
2022-11-25T09:18:33.092Z,100423.75
2022-11-25T09:21:01.091Z,100427.97
2022-11-25T09:23:28.766Z,100432.16
2022-11-25T09:25:58.642Z,100433.84
2022-11-25T09:28:27.467Z,100438.97
2022-11-25T09:30:55.224Z,100444.09
2022-11-25T09:33:23.488Z,100449.28
2022-11-25T09:35:53.046Z,100461.47
2022-11-25T09:38:20.769Z,100462.44
2022-11-25T09:40:56.681Z,100457.22
2022-11-25T09:43:57.277Z,100461.47
2022-11-25T09:46:42.988Z,100469.19
2022-11-25T09:49:22.589Z,100456.97
2022-11-25T09:51:58.010Z,100465.34
2022-11-25T09:54:30.793Z,100466.78
2022-11-25T09:57:13.830Z,100461.38
2022-11-25T09:59:50.583Z,100470.66
2022-11-25T10:02:25.163Z,100465.28
2022-11-25T10:04:56.272Z,100464.84
2022-11-25T10:07:33.156Z,100475.22
2022-11-25T10:10:03.929Z,100474.25
2022-11-25T10:12:35.885Z,100477.75
2022-11-25T10:15:08.041Z,100487.28
2022-11-25T10:17:44.219Z,100489.09
2022-11-25T10:20:20.496Z,100488.13
2022-11-25T10:22:52.872Z,100498.78
2022-11-25T10:25:24.773Z,100499.78
2022-11-25T10:27:58.284Z,100499.88
2022-11-25T10:30:28.155Z,100505.03
2022-11-25T10:33:06.080Z,100500.84
2022-11-25T10:35:39.126Z,100503.34
2022-11-25T10:38:18.963Z,100506.78
2022-11-25T10:40:49.478Z,100506.88
2022-11-25T10:43:17.409Z,100506.78
2022-11-25T10:45:49.847Z,100502.03
2022-11-25T10:48:33.076Z,100510.03
2022-11-25T10:51:15.566Z,100506.66
2022-11-25T10:54:16.337Z,100507.44
2022-11-25T10:56:47.048Z,100499.44
2022-11-25T10:59:22.311Z,100495.91
2022-11-25T11:01:51.131Z,100492.09
2022-11-25T11:04:19.470Z,100504.31
2022-11-25T11:06:49.812Z,100508.63
2022-11-25T11:09:35.181Z,100509.38
2022-11-25T11:12:17.248Z,100510.97
2022-11-25T11:14:45.386Z,100518.75
2022-11-25T11:17:36.333Z,100509.13
2022-11-25T11:20:22.319Z,100515.22
2022-11-25T11:22:55.996Z,100504.88
2022-11-25T11:25:30.307Z,100505.78
2022-11-25T11:27:58.368Z,100503.91
2022-11-25T11:30:28.431Z,100511.19
2022-11-25T11:33:00.159Z,100520.97
2022-11-25T11:35:41.816Z,100514.75
2022-11-25T11:38:28.781Z,100514.19
2022-11-25T11:41:06.591Z,100515.13
2022-11-25T11:44:07.616Z,100518.16
2022-11-25T11:46:51.605Z,100521.38
2022-11-25T11:49:41.979Z,100521.97
2022-11-25T11:52:17.770Z,100529.75
2022-11-25T11:54:47.736Z,100531.00
2022-11-25T11:57:29.413Z,100535.50
2022-11-25T11:59:59.595Z,100530.16
2022-11-25T12:02:36.501Z,100534.44
2022-11-25T12:05:15.158Z,100541.38
2022-11-25T12:07:49.888Z,100543.03
2022-11-25T12:10:23.660Z,100546.22
2022-11-25T12:12:56.627Z,100541.03
2022-11-25T12:15:35.062Z,100542.88
2022-11-25T12:18:05.954Z,100550.81
2022-11-25T12:20:39.749Z,100549.22
2022-11-25T12:23:14.267Z,100546.41
2022-11-25T12:25:43.907Z,100546.97
2022-11-25T12:28:18.178Z,100549.19
2022-11-25T12:31:03.360Z,100557.38
2022-11-25T12:33:44.861Z,100558.31
2022-11-25T12:36:18.903Z,100565.09
2022-11-25T12:38:48.638Z,100561.13
2022-11-25T12:41:26.242Z,100567.28
2022-11-25T12:44:01.816Z,100565.88
2022-11-25T12:46:37.721Z,100567.69
2022-11-25T12:49:09.447Z,100571.81
2022-11-25T12:52:09.481Z,100578.56
2022-11-25T12:54:54.209Z,100586.81
2022-11-25T12:58:02.034Z,100581.94
2022-11-25T13:00:48.142Z,100587.00
2022-11-25T13:03:40.852Z,100594.47
2022-11-25T13:06:31.094Z,100596.84
2022-11-25T13:09:04.801Z,100602.94
2022-11-25T13:11:58.451Z,100602.31
2022-11-25T13:14:33.022Z,100610.31
2022-11-25T13:17:03.440Z,100610.66
2022-11-25T13:19:36.828Z,100615.34
2022-11-25T13:22:06.400Z,100612.19
2022-11-25T13:24:39.297Z,100617.88
2022-11-25T13:27:07.504Z,100618.97
2022-11-25T13:30:03.296Z,100625.06
2022-11-25T13:32:38.999Z,100621.03
2022-11-25T13:35:40.167Z,100639.91
2022-11-25T13:38:23.494Z,100633.09
2022-11-25T13:40:58.212Z,100640.13
2022-11-25T13:43:26.080Z,100643.63
2022-11-25T13:45:54.335Z,100646.16
2022-11-25T13:48:27.101Z,100652.34
2022-11-25T13:51:16.304Z,100654.16
2022-11-25T13:53:53.254Z,100654.28
2022-11-25T13:56:28.640Z,100653.63
2022-11-25T13:59:35.219Z,100662.16
2022-11-25T14:02:44.760Z,100665.41
2022-11-25T14:05:43.863Z,100661.03
2022-11-25T14:08:21.216Z,100658.22
2022-11-25T14:11:01.251Z,100655.75
2022-11-25T14:13:52.054Z,100660.16
2022-11-25T14:16:41.191Z,100666.31
2022-11-25T14:22:40.170Z,100669.66
2022-11-25T14:25:20.159Z,100666.09
2022-11-25T14:27:51.415Z,100668.59
2022-11-25T14:30:20.718Z,100673.72
2022-11-25T14:32:57.827Z,100672.66
2022-11-25T14:35:31.415Z,100675.91
2022-11-25T14:38:05.555Z,100673.25
2022-11-25T14:40:39.473Z,100689.94
2022-11-25T14:43:16.105Z,100689.22
2022-11-25T14:45:44.348Z,100692.22
2022-11-25T14:48:16.366Z,100707.13
2022-11-25T14:50:55.988Z,100706.56
2022-11-25T14:53:26.816Z,100715.47
2022-11-25T14:55:54.942Z,100710.47
2022-11-25T14:58:23.087Z,100721.94
2022-11-25T15:00:52.913Z,100716.97
2022-11-25T15:03:21.603Z,100718.84
2022-11-25T15:05:57.004Z,100722.31
2022-11-25T15:08:26.791Z,100717.78
2022-11-25T15:10:56.538Z,100723.97
2022-11-25T15:13:34.710Z,100721.53
2022-11-25T15:16:09.303Z,100725.16
2022-11-25T15:18:39.238Z,100730.53
2022-11-25T15:21:07.603Z,100733.25
2022-11-25T15:23:38.975Z,100734.22
2022-11-25T15:26:19.021Z,100737.50
2022-11-25T15:28:47.299Z,100747.75
2022-11-25T15:31:21.036Z,100745.69
2022-11-25T15:33:54.883Z,100746.63
2022-11-25T15:36:23.906Z,100754.16
2022-11-25T15:38:53.626Z,100758.50
2022-11-25T15:41:33.255Z,100763.72
2022-11-25T15:44:02.874Z,100763.91
2022-11-25T15:46:34.310Z,100771.91
2022-11-25T15:49:05.779Z,100775.53
2022-11-25T15:51:39.208Z,100785.34
2022-11-25T15:54:18.445Z,100789.88
2022-11-25T15:56:50.128Z,100782.09
2022-11-25T15:59:41.128Z,100786.31
2022-11-25T16:02:35.591Z,100786.38
2022-11-25T16:05:24.293Z,100781.19
2022-11-25T16:08:02.919Z,100787.25
2022-11-25T16:10:34.639Z,100786.41
2022-11-25T16:13:34.372Z,100786.38
2022-11-25T16:16:22.575Z,100783.94
2022-11-25T16:18:59.080Z,100790.00
2022-11-25T16:21:30.530Z,100796.09
2022-11-25T16:24:10.427Z,100794.38
2022-11-25T16:26:49.509Z,100804.75
2022-11-25T16:29:20.082Z,100804.81
2022-11-25T16:31:48.199Z,100803.97
2022-11-25T16:34:18.218Z,100815.22
2022-11-25T16:36:45.990Z,100810.88
2022-11-25T16:39:14.217Z,100820.38
2022-11-25T16:41:46.148Z,100819.59
2022-11-25T16:44:21.233Z,100825.66
2022-11-25T16:46:49.728Z,100830.13
2022-11-25T16:49:19.301Z,100834.41
2022-11-25T16:51:47.137Z,100829.34
2022-11-25T16:54:14.964Z,100841.63
2022-11-25T16:56:45.344Z,100835.75
2022-11-25T16:59:17.933Z,100844.50
2022-11-25T17:01:46.593Z,100851.50
2022-11-25T17:04:15.546Z,100852.53
2022-11-25T17:06:50.500Z,100861.16
2022-11-25T17:09:32.933Z,100853.44
2022-11-25T17:12:02.441Z,100853.41
2022-11-25T17:14:32.923Z,100855.94
2022-11-25T17:17:01.843Z,100861.00
2022-11-25T17:19:30.356Z,100857.63
2022-11-25T17:21:58.679Z,100867.97
2022-11-25T17:24:27.123Z,100874.03
2022-11-25T17:26:57.920Z,100871.34
2022-11-25T17:29:32.877Z,100875.56
2022-11-25T17:32:01.139Z,100877.97
2022-11-25T17:34:28.933Z,100882.28
2022-11-25T17:36:57.717Z,100889.97
2022-11-25T17:39:25.724Z,100890.81
2022-11-25T17:41:53.462Z,100900.25
2022-11-25T17:44:25.895Z,100905.41
2022-11-25T17:46:58.213Z,100906.19
2022-11-25T17:49:26.883Z,100906.22
2022-11-25T17:51:54.717Z,100918.28
2022-11-25T17:54:22.947Z,100919.94
2022-11-25T17:56:52.567Z,100930.28
2022-11-25T17:59:25.497Z,100931.16
2022-11-25T18:01:55.991Z,100930.44
2022-11-25T18:04:25.222Z,100933.09
2022-11-25T18:06:53.557Z,100939.28
2022-11-25T18:09:21.451Z,100939.28
2022-11-25T18:11:53.026Z,100945.34
2022-11-25T18:14:26.254Z,100953.19
2022-11-25T18:16:56.399Z,100961.84
2022-11-25T18:19:24.512Z,100962.66
2022-11-25T18:21:52.757Z,100971.16
2022-11-25T18:24:20.449Z,100968.31
2022-11-25T18:26:50.898Z,100975.06
2022-11-25T18:29:22.929Z,100976.66
2022-11-25T18:31:51.367Z,100983.66
2022-11-25T18:34:20.728Z,100976.72
2022-11-25T18:36:48.701Z,100972.34
2022-11-25T18:39:16.333Z,100975.00
2022-11-25T18:41:45.561Z,100990.72
2022-11-25T18:44:25.852Z,101000.34
2022-11-25T18:46:54.940Z,100997.03
2022-11-25T18:49:24.780Z,101004.91
2022-11-25T18:51:52.523Z,101011.75
2022-11-25T18:54:20.161Z,101015.25
2022-11-25T18:56:52.029Z,101013.41
2022-11-25T18:59:28.980Z,101020.09
2022-11-25T19:01:56.838Z,101026.09
2022-11-25T19:04:26.024Z,101028.69
2022-11-25T19:06:53.899Z,101032.13
2022-11-25T19:09:21.547Z,101042.47
2022-11-25T19:11:53.437Z,101043.41
2022-11-25T19:14:29.051Z,101059.75
2022-11-25T19:16:59.874Z,101067.22
2022-11-25T19:19:29.586Z,101071.44
2022-11-25T19:22:02.095Z,101074.91
2022-11-25T19:24:30.944Z,101077.69
2022-11-25T19:26:58.967Z,101080.28
2022-11-25T19:29:33.840Z,101084.47
2022-11-25T19:32:05.183Z,101084.25
2022-11-25T19:34:38.660Z,101090.91
2022-11-25T19:37:06.661Z,101099.53
2022-11-25T19:39:37.501Z,101104.03
2022-11-25T19:42:05.397Z,101100.47
2022-11-25T19:44:33.341Z,101107.38
2022-11-25T19:47:15.126Z,101112.50
2022-11-25T19:49:46.146Z,101116.97
2022-11-25T19:52:17.068Z,101112.59
2022-11-25T19:54:45.156Z,101129.88
2022-11-25T19:57:17.557Z,101123.94
2022-11-25T19:59:46.558Z,101123.88
2022-11-25T20:02:16.866Z,101130.03
2022-11-25T20:04:48.144Z,101131.88
2022-11-25T20:07:19.277Z,101137.28
2022-11-25T20:09:48.390Z,101143.47
2022-11-25T20:12:22.113Z,101152.03
2022-11-25T20:14:50.634Z,101151.31
2022-11-25T20:17:25.489Z,101151.25
2022-11-25T20:19:57.154Z,101149.47
2022-11-25T20:22:29.359Z,101159.88
2022-11-25T20:24:59.761Z,101160.75
2022-11-25T20:27:28.916Z,101160.84
2022-11-25T20:29:57.433Z,101170.19
2022-11-25T20:32:29.474Z,101171.91
2022-11-25T20:35:01.175Z,101171.03
2022-11-25T20:37:40.465Z,101173.50
2022-11-25T20:40:17.601Z,101179.69
2022-11-25T20:42:46.601Z,101179.81
2022-11-25T20:45:16.468Z,101177.25
2022-11-25T20:47:44.804Z,101183.28
2022-11-25T20:50:17.170Z,101185.69
2022-11-25T20:52:46.877Z,101194.41
2022-11-25T20:55:20.731Z,101209.94
2022-11-25T20:57:50.622Z,101208.94
2022-11-25T21:00:24.147Z,101214.19
2022-11-25T21:02:52.445Z,101219.44
2022-11-25T21:05:22.518Z,101224.75
2022-11-25T21:07:51.810Z,101230.09
2022-11-25T21:10:26.526Z,101223.91
2022-11-25T21:12:55.002Z,101236.19
2022-11-25T21:15:25.425Z,101243.97
2022-11-25T21:17:53.407Z,101242.44
2022-11-25T21:20:22.580Z,101248.78
2022-11-25T21:22:55.013Z,101251.63
2022-11-25T21:25:24.033Z,101251.03
2022-11-25T21:27:53.212Z,101247.81
2022-11-25T21:30:24.027Z,101252.25
2022-11-25T21:32:54.563Z,101251.50
2022-11-25T21:35:26.012Z,101256.75
2022-11-25T21:37:54.046Z,101261.22
2022-11-25T21:40:33.027Z,101259.63
2022-11-25T21:43:01.442Z,101264.88
2022-11-25T21:45:29.290Z,101268.34
2022-11-25T21:47:57.028Z,101254.63
2022-11-25T21:50:29.497Z,101269.28
2022-11-25T21:52:57.652Z,101271.00
2022-11-25T21:55:26.274Z,101279.63
2022-11-25T21:57:54.210Z,101278.75
2022-11-25T22:00:24.711Z,101275.34
2022-11-25T22:02:53.201Z,101276.34
2022-11-25T22:05:25.374Z,101279.84
2022-11-25T22:07:55.034Z,101278.16
2022-11-25T22:10:23.682Z,101280.78
2022-11-25T22:12:51.765Z,101279.97
2022-11-25T22:15:22.107Z,101284.38
2022-11-25T22:17:54.250Z,101282.66
2022-11-25T22:20:28.880Z,101279.19
2022-11-25T22:22:58.025Z,101280.94
2022-11-25T22:25:27.730Z,101292.13
2022-11-25T22:27:55.506Z,101287.03
2022-11-25T22:30:24.837Z,101288.78
2022-11-25T22:33:00.844Z,101303.44
2022-11-25T22:35:29.234Z,101317.38
2022-11-25T22:37:58.432Z,101327.78
2022-11-25T22:40:26.413Z,101318.47
2022-11-25T22:42:57.023Z,101329.69
2022-11-25T22:45:30.449Z,101339.16
2022-11-25T22:47:59.366Z,101345.16
2022-11-25T22:50:29.709Z,101343.41
2022-11-25T22:53:00.369Z,101346.78
2022-11-25T22:55:29.887Z,101356.22
2022-11-25T22:58:00.167Z,101351.94
2022-11-25T23:00:29.494Z,101367.44
2022-11-25T23:02:59.223Z,101366.56
2022-11-25T23:05:32.497Z,101368.34
2022-11-25T23:08:03.217Z,101362.34
2022-11-25T23:10:32.892Z,101370.97
2022-11-25T23:13:00.811Z,101368.38
2022-11-25T23:15:28.640Z,101367.59
2022-11-25T23:17:58.442Z,101366.75
2022-11-25T23:20:30.268Z,101372.78
2022-11-25T23:22:59.127Z,101376.22
2022-11-25T23:25:28.242Z,101375.41
2022-11-25T23:27:55.975Z,101382.28
2022-11-25T23:30:24.619Z,101386.53
2022-11-25T23:32:54.447Z,101384.81
2022-11-25T23:35:28.423Z,101384.78
2022-11-25T23:37:57.748Z,101392.53
2022-11-25T23:40:28.605Z,101392.56
2022-11-25T23:42:57.422Z,101395.16
2022-11-25T23:45:27.516Z,101390.84
2022-11-25T23:47:57.209Z,101389.13
2022-11-25T23:50:29.170Z,101392.56
2022-11-25T23:53:00.896Z,101400.28
2022-11-25T23:55:32.138Z,101396.00
2022-11-25T23:58:01.643Z,101399.44
